CloseHelpProblem

Burley Spudman

07/28/12


PlBibName RepresentingAge Division Interval TimeTime BackTotal Time
11328Doug LENIOPOCATELLO ID USA07 M 45-4900:15:05.537+0:0000:15:05.537
21285Steven ORROCKALPINE UT USA07 M 45-4900:15:56.115+0:50.500:15:56.115
31247Kleigh HUMPHREYSALT LAKE CITY UT USA07 M 45-4900:16:36.041+1:30.500:16:36.041
41287Brad BARLOWFRUITLAND ID USA07 M 45-4900:16:39.069+1:33.500:16:39.069
51233Alan SMILEYPROVO UT USA07 M 45-4900:17:26.123+2:20.500:17:26.1
61257Bruno GERBERRIVERTON UT USA07 M 45-4900:17:48.953+0:22.800:17:48.953
71291Scott DEBERARDNORTH LOGAN UT USA07 M 45-4900:17:50.534+0:24.400:17:50.534
81278Glen ALLENBURLEY ID USA07 M 45-4900:17:55.773+0:29.600:17:55.773
91249Paul SLADEMURRAY UT USA07 M 45-4900:18:24.943+0:58.800:18:24.943
101302Tracy MOBLEYRIGBY ID USA07 M 45-4900:18:33.511+1:07.300:18:33.511
111277David BLACKBURNEAGLE MTN UT USA07 M 45-4900:18:39.231+1:13.100:18:39.231
121303Matt BRIDGESBUHL ID USA07 M 45-4900:18:44.696+1:18.500:18:44.696
131231Jeff OTTORIVERTON UT USA07 M 45-4900:19:10.900+1:44.700:19:10.900
141265Greg ANDERSONSOUTH JORDAN UT USA07 M 45-4900:19:28.040+2:01.900:19:28.040
151242Darin ANDERSONLEHI UT USA07 M 45-4900:19:35.643+2:09.500:19:35.643
161306Adam DEWAALSLC UT USA07 M 45-4900:19:46.934+2:20.800:19:46.934
171281Brad CHRISTENSENALPINE UT USA07 M 45-4900:20:22.027+2:55.900:20:22.027
181263Bart LARSENIDAHO FALLS ID USA07 M 45-4900:20:25.551+2:59.400:20:25.551
191251Michael HOUSLEYSMITHFIELD UT USA07 M 45-4900:20:25.736+2:59.600:20:25.736
201293Lonnie HUNTERSOUTH JORDAN UT USA07 M 45-4900:20:35.030+3:08.900:20:35.030
211241Kris PAINTERRIVERTON UT USA07 M 45-4900:20:42.445+3:16.300:20:42.445
221248Paul KORTHWEST JORDAN UT USA07 M 45-4900:20:46.978+3:20.800:20:46.978
231238Shane DAMRONINKOM ID USA07 M 45-4900:20:55.308+3:29.100:20:55.308
241266Temp PATTERSONBURLEY ID USA07 M 45-4900:20:59.965+3:33.800:20:59.965
251301Whitney PHILLIPSBOUNTIFUL UT USA07 M 45-4900:21:02.449+3:36.300:21:02.449
261255Daren GEHRINGNORTH LOGAN UT USA07 M 45-4900:21:08.481+3:42.300:21:08.481
271282Robert CONLEEALPINE UT USA07 M 45-4900:21:19.072+3:52.900:21:19.072
281227Glenn WAKEFIELDHEBER CITY UT USA07 M 45-4900:21:20.336+3:54.200:21:20.336
291259Brad BURGESSWEST JORDAN UT USA07 M 45-4900:21:26.687+4:00.500:21:26.687
301226Anthony BARNHARTTWIN FALLS ID USA07 M 45-4900:21:29.185+4:03.000:21:29.185
311288William ASHTONSOUTH JORDAN UT USA07 M 45-4900:21:29.966+4:03.800:21:29.966
321320David LARSONCENTERVILLE UT USA07 M 45-4900:21:42.002+4:15.800:21:42.002
331230Thayne PETERSONALPINE UT USA07 M 45-4900:21:49.083+4:22.900:21:49.083
341276David MOXHAMDRAPER UT USA07 M 45-4900:21:59.852+4:33.700:21:59.852
351300Bart HANSONJACKSON ID USA07 M 45-4900:22:03.363+4:37.200:22:03.363
361237Ron VAN TIENDERENSALT LAKE CITY UT USA07 M 45-4900:22:03.940+4:37.800:22:03.940
371297Doug GARRETTMILLVILLE UT USA07 M 45-4900:22:05.705+4:39.500:22:05.705
381254Jeffrey KINGKAYSVILLE UT USA07 M 45-4900:22:11.682+4:45.500:22:11.682
391232Frank MENDEZMURRAY UT USA07 M 45-4900:22:23.277+4:57.100:22:23.277
401235Greg SCHERERNORTH OGDEN UT USA07 M 45-4900:22:50.186+5:24.000:22:50.186
411270Barry JOHNSONALPINE UT USA07 M 45-4900:23:05.311+5:39.100:23:05.311
421229Brian PIKETWIN FALLS ID USA07 M 45-4900:23:16.702+5:50.500:23:16.702
431286Craig RASBANDFARMINGTON UT USA07 M 45-4900:23:29.158+6:03.000:23:29.158
441329Perry CRAWFORDTREMONTON UT USA07 M 45-4900:23:34.062+6:07.900:23:34.062
451313Lynn LANGFORDALPINE UT USA07 M 45-4900:23:41.444+6:15.300:23:41.444
461244Shon RINDLISBACHERRIVERTON UT USA07 M 45-4900:23:42.186+6:16.000:23:42.186
471268Daniel SNOWPROVO UT USA07 M 45-4900:23:53.864+6:27.700:23:53.864
481319Daniel SORENSENSALT LAKE CITY UT USA07 M 45-4900:24:00.7+6:34.500:24:00.7
491240Tim JONESBOUNTIFUL UT USA07 M 45-4900:24:09.341+0:08.600:24:09.341
501239Gregg GREEREDEN UT USA07 M 45-4900:24:21.310+0:20.600:24:21.310
511323Sean KUNZLEROGDEN UT USA07 M 45-4900:24:24.237+0:23.500:24:24.237
521312Stuart ROBERTSONVANCOUVER WA USA07 M 45-4900:24:38.855+0:38.100:24:38.855
531272Brad CHILTONPOCATELLO ID USA07 M 45-4900:24:52.991+0:52.200:24:52.991
541280Tim CHESLEYPARK CITY UT USA07 M 45-4900:24:53.985+0:53.200:24:53.985
551322Fred STURGELLHENDERSON CO USA07 M 45-4900:25:22.399+1:21.600:25:22.399
561311Morgan GOFFSAN DIEGO CA USA07 M 45-4900:25:25.645+1:24.900:25:25.645
571290Matthew JOHNSONCENTERVILLE UT USA07 M 45-4900:25:34.196+1:33.400:25:34.196
581321Brian WOLSEYALPINE UT USA07 M 45-4900:25:42.844+1:42.100:25:42.844
591978Richard MATHESON07 M 45-4900:25:53.373+1:52.600:25:53.373
601260Myron VAWDREYDRAPER UT USA07 M 45-4900:25:55.509+1:54.800:25:55.509
611271Andy BOYCEDRAPER UT USA07 M 45-4900:26:03.054+2:02.300:26:03.054
621252Tony CHRISTENSENKAYSVILLE UT USA07 M 45-4900:26:10.901+2:10.200:26:10.901
631279Daren STEGELMEIERMORGAN UT USA07 M 45-4900:27:48.929+3:48.200:27:48.929
641310Lonnie MCMURTREYTHORNTON CO USA07 M 45-4900:27:54.348+3:53.600:27:54.348
651298Peter KLAASSIDAHO FALLS ID USA07 M 45-4900:28:03.173+4:02.400:28:03.173
661250Curt EVANSSOUTH JORDAN UT USA07 M 45-4900:28:26.977+4:26.200:28:26.977
671261Matthew MITTONBOUNTIFUL UT USA07 M 45-4900:28:32.205+4:31.500:28:32.205
681294Alan NIELSONLITTLE ELM TX USA07 M 45-4900:29:06.785+5:06.000:29:06.785
691289Kevin HALVERSONRUPERT ID USA07 M 45-4900:29:34.573+5:33.800:29:34.573
701324Alan DAYLEYALPINE UT USA07 M 45-4900:29:59.957+5:59.200:29:59.957
711305Carl GROSSEN07 M 45-4900:30:29.936+6:29.200:30:29.936
721292Jeff LAWRENCEIDAHO FALLS ID USA07 M 45-4900:31:18.357+7:17.600:31:18.357
731332Aaron HALLSALT LAKE CITY UT USA07 M 45-4900:44:24.798+20:24.000:44:24.798